Terminal Aerodrome Forecast
Issued by NWS Twin Cities, MN

Home | Current Version | Previous Version | Text Only | Print | Product List | Glossary Off
Versions: 1 2 3 4 5 6 7 8 9 10 11 12 13 14 15 16 17 18 19 20 21 22 23 24 25 26 27 28

000
FTUS43 KMPX 190800 AAA
TAFMSP
TAF AMD
KMSP 190848Z 1909/2012 13015G27KT P6SM SCT080 BKN150
     FM191300 15018G26KT P6SM BKN060 BKN100
     FM191700 19014G20KT P6SM VCSH SCT040 OVC060 PROB30 1919/1922
      5SM -SHRA OVC040
     FM200000 21007KT P6SM SCT060 BKN100=

USA.gov is the U.S. government's official web portal to all federal, state and local government web resources and services.